sensor_id;sensor_type;location;lat;lon;timestamp;P1;durP1;ratioP1;P2;durP2;ratioP2
33150;SDS011;19508;42.578;23.416;2023-07-20T00:01:13;14.75;;;3.53;;
33150;SDS011;19508;42.578;23.416;2023-07-20T00:03:39;13.63;;;4.30;;
33150;SDS011;19508;42.578;23.416;2023-07-20T00:06:05;15.77;;;4.03;;
33150;SDS011;19508;42.578;23.416;2023-07-20T00:08:30;13.68;;;3.58;;
33150;SDS011;19508;42.578;23.416;2023-07-20T00:10:56;16.88;;;4.30;;
33150;SDS011;19508;42.578;23.416;2023-07-20T00:13:21;20.27;;;4.00;;
33150;SDS011;19508;42.578;23.416;2023-07-20T00:15:47;16.25;;;3.78;;
33150;SDS011;19508;42.578;23.416;2023-07-20T00:18:12;12.48;;;3.70;;
33150;SDS011;19508;42.578;23.416;2023-07-20T00:20:38;16.02;;;4.18;;
33150;SDS011;19508;42.578;23.416;2023-07-20T00:23:04;20.90;;;3.78;;
33150;SDS011;19508;42.578;23.416;2023-07-20T00:25:31;12.18;;;3.88;;
33150;SDS011;19508;42.578;23.416;2023-07-20T00:27:57;8.02;;;3.67;;
33150;SDS011;19508;42.578;23.416;2023-07-20T00:30:22;13.10;;;3.70;;
33150;SDS011;19508;42.578;23.416;2023-07-20T00:32:47;13.70;;;3.47;;
33150;SDS011;19508;42.578;23.416;2023-07-20T00:35:13;17.00;;;4.40;;
33150;SDS011;19508;42.578;23.416;2023-07-20T00:37:39;11.75;;;3.65;;
33150;SDS011;19508;42.578;23.416;2023-07-20T00:40:05;14.05;;;3.95;;
33150;SDS011;19508;42.578;23.416;2023-07-20T00:42:32;16.95;;;3.47;;
33150;SDS011;19508;42.578;23.416;2023-07-20T00:44:58;17.33;;;3.67;;
33150;SDS011;19508;42.578;23.416;2023-07-20T00:47:25;16.77;;;3.80;;
33150;SDS011;19508;42.578;23.416;2023-07-20T00:49:51;14.68;;;3.83;;
33150;SDS011;19508;42.578;23.416;2023-07-20T00:52:20;11.70;;;3.95;;
33150;SDS011;19508;42.578;23.416;2023-07-20T00:54:48;17.55;;;3.80;;
33150;SDS011;19508;42.578;23.416;2023-07-20T00:57:14;9.52;;;3.40;;
33150;SDS011;19508;42.578;23.416;2023-07-20T00:59:41;10.20;;;3.65;;
33150;SDS011;19508;42.578;23.416;2023-07-20T01:02:07;11.20;;;4.00;;
33150;SDS011;19508;42.578;23.416;2023-07-20T01:04:32;14.75;;;3.95;;
33150;SDS011;19508;42.578;23.416;2023-07-20T01:12:36;12.48;;;4.10;;
33150;SDS011;19508;42.578;23.416;2023-07-20T01:15:08;18.00;;;4.28;;
33150;SDS011;19508;42.578;23.416;2023-07-20T01:17:35;19.63;;;3.67;;
33150;SDS011;19508;42.578;23.416;2023-07-20T01:20:01;18.20;;;3.85;;
33150;SDS011;19508;42.578;23.416;2023-07-20T01:31:25;13.55;;;3.70;;
33150;SDS011;19508;42.578;23.416;2023-07-20T01:33:54;16.02;;;4.13;;
33150;SDS011;19508;42.578;23.416;2023-07-20T01:36:23;12.68;;;3.40;;
33150;SDS011;19508;42.578;23.416;2023-07-20T01:38:51;21.42;;;4.00;;
33150;SDS011;19508;42.578;23.416;2023-07-20T01:41:18;20.00;;;4.05;;
33150;SDS011;19508;42.578;23.416;2023-07-20T01:43:44;13.95;;;4.40;;
33150;SDS011;19508;42.578;23.416;2023-07-20T01:46:10;12.98;;;3.72;;
33150;SDS011;19508;42.578;23.416;2023-07-20T01:48:35;10.23;;;3.63;;
33150;SDS011;19508;42.578;23.416;2023-07-20T01:51:00;15.18;;;3.80;;
33150;SDS011;19508;42.578;23.416;2023-07-20T01:53:26;16.77;;;4.10;;
33150;SDS011;19508;42.578;23.416;2023-07-20T01:55:56;18.48;;;3.55;;
33150;SDS011;19508;42.578;23.416;2023-07-20T01:58:22;11.10;;;4.22;;
33150;SDS011;19508;42.578;23.416;2023-07-20T02:00:48;18.80;;;3.83;;
33150;SDS011;19508;42.578;23.416;2023-07-20T02:03:14;27.52;;;4.68;;
33150;SDS011;19508;42.578;23.416;2023-07-20T02:05:39;16.42;;;4.95;;
33150;SDS011;19508;42.578;23.416;2023-07-20T02:08:07;14.13;;;4.47;;
33150;SDS011;19508;42.578;23.416;2023-07-20T02:10:33;14.38;;;4.43;;
33150;SDS011;19508;42.578;23.416;2023-07-20T02:12:58;15.70;;;5.07;;
33150;SDS011;19508;42.578;23.416;2023-07-20T02:15:24;8.48;;;4.75;;
33150;SDS011;19508;42.578;23.416;2023-07-20T02:17:49;11.45;;;4.38;;
33150;SDS011;19508;42.578;23.416;2023-07-20T02:20:14;15.35;;;5.20;;
33150;SDS011;19508;42.578;23.416;2023-07-20T02:22:40;10.82;;;4.82;;
33150;SDS011;19508;42.578;23.416;2023-07-20T02:25:06;18.13;;;5.32;;
33150;SDS011;19508;42.578;23.416;2023-07-20T02:27:32;18.33;;;5.05;;
33150;SDS011;19508;42.578;23.416;2023-07-20T02:29:59;12.55;;;4.32;;
33150;SDS011;19508;42.578;23.416;2023-07-20T02:32:24;12.13;;;5.00;;
33150;SDS011;19508;42.578;23.416;2023-07-20T02:34:49;13.38;;;5.00;;
33150;SDS011;19508;42.578;23.416;2023-07-20T02:37:16;22.85;;;5.53;;
33150;SDS011;19508;42.578;23.416;2023-07-20T02:39:41;12.52;;;5.05;;
33150;SDS011;19508;42.578;23.416;2023-07-20T02:42:07;22.10;;;5.25;;
33150;SDS011;19508;42.578;23.416;2023-07-20T02:44:32;20.80;;;5.47;;
33150;SDS011;19508;42.578;23.416;2023-07-20T02:46:57;18.27;;;5.03;;
33150;SDS011;19508;42.578;23.416;2023-07-20T02:49:23;15.32;;;5.10;;
33150;SDS011;19508;42.578;23.416;2023-07-20T02:51:48;12.68;;;5.18;;
33150;SDS011;19508;42.578;23.416;2023-07-20T02:54:14;16.50;;;4.88;;
33150;SDS011;19508;42.578;23.416;2023-07-20T02:56:40;11.85;;;5.28;;
33150;SDS011;19508;42.578;23.416;2023-07-20T02:59:05;10.68;;;4.53;;
33150;SDS011;19508;42.578;23.416;2023-07-20T03:01:30;22.27;;;5.18;;
33150;SDS011;19508;42.578;23.416;2023-07-20T03:03:56;12.95;;;5.35;;
33150;SDS011;19508;42.578;23.416;2023-07-20T03:06:21;17.73;;;5.32;;
33150;SDS011;19508;42.578;23.416;2023-07-20T03:08:47;9.40;;;5.38;;
33150;SDS011;19508;42.578;23.416;2023-07-20T03:11:17;16.45;;;5.57;;
33150;SDS011;19508;42.578;23.416;2023-07-20T03:13:43;17.40;;;5.70;;
33150;SDS011;19508;42.578;23.416;2023-07-20T03:16:14;17.52;;;6.32;;
33150;SDS011;19508;42.578;23.416;2023-07-20T03:18:44;20.27;;;6.10;;
33150;SDS011;19508;42.578;23.416;2023-07-20T03:21:11;14.32;;;5.55;;
33150;SDS011;19508;42.578;23.416;2023-07-20T03:23:37;25.17;;;6.03;;
33150;SDS011;19508;42.578;23.416;2023-07-20T03:26:03;19.98;;;5.47;;
33150;SDS011;19508;42.578;23.416;2023-07-20T03:28:29;12.38;;;5.53;;
33150;SDS011;19508;42.578;23.416;2023-07-20T03:30:55;15.30;;;5.60;;
33150;SDS011;19508;42.578;23.416;2023-07-20T03:33:25;13.57;;;5.63;;
33150;SDS011;19508;42.578;23.416;2023-07-20T03:35:52;14.30;;;6.30;;
33150;SDS011;19508;42.578;23.416;2023-07-20T03:38:19;12.95;;;5.88;;
33150;SDS011;19508;42.578;23.416;2023-07-20T03:40:55;8.70;;;4.72;;
33150;SDS011;19508;42.578;23.416;2023-07-20T03:43:22;11.73;;;5.47;;
33150;SDS011;19508;42.578;23.416;2023-07-20T03:45:49;11.70;;;4.97;;
33150;SDS011;19508;42.578;23.416;2023-07-20T03:48:15;11.23;;;5.43;;
33150;SDS011;19508;42.578;23.416;2023-07-20T03:50:43;13.57;;;4.60;;
33150;SDS011;19508;42.578;23.416;2023-07-20T03:53:10;12.90;;;5.65;;
33150;SDS011;19508;42.578;23.416;2023-07-20T03:55:36;9.38;;;5.00;;
33150;SDS011;19508;42.578;23.416;2023-07-20T03:58:01;17.80;;;5.82;;
33150;SDS011;19508;42.578;23.416;2023-07-20T04:00:27;18.80;;;6.05;;
33150;SDS011;19508;42.578;23.416;2023-07-20T04:02:52;18.17;;;6.03;;
33150;SDS011;19508;42.578;23.416;2023-07-20T04:05:18;22.50;;;5.68;;
33150;SDS011;19508;42.578;23.416;2023-07-20T04:07:44;19.80;;;5.78;;
33150;SDS011;19508;42.578;23.416;2023-07-20T04:10:09;17.48;;;5.53;;
33150;SDS011;19508;42.578;23.416;2023-07-20T04:12:35;11.32;;;5.03;;
33150;SDS011;19508;42.578;23.416;2023-07-20T04:15:00;30.25;;;5.72;;
33150;SDS011;19508;42.578;23.416;2023-07-20T04:17:26;13.70;;;5.18;;
33150;SDS011;19508;42.578;23.416;2023-07-20T04:19:51;13.52;;;6.00;;
33150;SDS011;19508;42.578;23.416;2023-07-20T04:22:17;13.90;;;5.65;;
33150;SDS011;19508;42.578;23.416;2023-07-20T04:24:42;18.38;;;5.50;;
33150;SDS011;19508;42.578;23.416;2023-07-20T04:27:08;15.18;;;5.72;;
33150;SDS011;19508;42.578;23.416;2023-07-20T04:29:33;17.25;;;6.03;;
33150;SDS011;19508;42.578;23.416;2023-07-20T04:31:59;16.23;;;4.85;;
33150;SDS011;19508;42.578;23.416;2023-07-20T04:34:24;12.77;;;4.78;;
33150;SDS011;19508;42.578;23.416;2023-07-20T04:36:49;14.00;;;5.05;;
33150;SDS011;19508;42.578;23.416;2023-07-20T04:39:15;12.82;;;4.82;;
33150;SDS011;19508;42.578;23.416;2023-07-20T04:41:40;9.75;;;5.03;;
33150;SDS011;19508;42.578;23.416;2023-07-20T04:44:06;14.60;;;4.68;;
33150;SDS011;19508;42.578;23.416;2023-07-20T04:46:31;13.30;;;5.25;;
33150;SDS011;19508;42.578;23.416;2023-07-20T04:48:56;14.70;;;4.82;;
33150;SDS011;19508;42.578;23.416;2023-07-20T04:51:22;18.17;;;4.90;;
33150;SDS011;19508;42.578;23.416;2023-07-20T04:53:47;11.13;;;5.10;;
33150;SDS011;19508;42.578;23.416;2023-07-20T04:56:13;14.73;;;5.30;;
33150;SDS011;19508;42.578;23.416;2023-07-20T04:58:39;23.40;;;5.80;;
33150;SDS011;19508;42.578;23.416;2023-07-20T05:01:04;16.90;;;4.93;;
33150;SDS011;19508;42.578;23.416;2023-07-20T05:03:30;14.52;;;4.43;;
33150;SDS011;19508;42.578;23.416;2023-07-20T05:06:00;13.35;;;4.43;;
33150;SDS011;19508;42.578;23.416;2023-07-20T05:08:29;13.27;;;4.20;;
33150;SDS011;19508;42.578;23.416;2023-07-20T05:10:54;10.60;;;3.83;;
33150;SDS011;19508;42.578;23.416;2023-07-20T05:13:20;16.45;;;3.75;;
33150;SDS011;19508;42.578;23.416;2023-07-20T05:15:45;19.25;;;5.20;;
33150;SDS011;19508;42.578;23.416;2023-07-20T05:18:10;12.90;;;4.55;;
33150;SDS011;19508;42.578;23.416;2023-07-20T05:20:36;18.40;;;4.53;;
33150;SDS011;19508;42.578;23.416;2023-07-20T05:23:02;12.15;;;4.70;;
33150;SDS011;19508;42.578;23.416;2023-07-20T05:25:27;14.80;;;4.07;;
33150;SDS011;19508;42.578;23.416;2023-07-20T05:27:53;18.50;;;4.63;;
33150;SDS011;19508;42.578;23.416;2023-07-20T05:30:20;20.52;;;5.03;;
33150;SDS011;19508;42.578;23.416;2023-07-20T05:32:46;12.50;;;3.90;;
33150;SDS011;19508;42.578;23.416;2023-07-20T05:35:16;11.27;;;4.53;;
33150;SDS011;19508;42.578;23.416;2023-07-20T05:37:42;12.00;;;4.13;;
33150;SDS011;19508;42.578;23.416;2023-07-20T05:40:08;10.35;;;3.63;;
33150;SDS011;19508;42.578;23.416;2023-07-20T05:42:36;14.75;;;3.88;;
33150;SDS011;19508;42.578;23.416;2023-07-20T05:45:02;8.77;;;3.72;;
33150;SDS011;19508;42.578;23.416;2023-07-20T05:47:27;10.10;;;4.10;;
33150;SDS011;19508;42.578;23.416;2023-07-20T05:49:54;9.70;;;3.75;;
33150;SDS011;19508;42.578;23.416;2023-07-20T05:52:19;12.90;;;4.07;;
33150;SDS011;19508;42.578;23.416;2023-07-20T05:54:45;12.48;;;4.20;;
33150;SDS011;19508;42.578;23.416;2023-07-20T05:57:10;18.10;;;3.97;;
33150;SDS011;19508;42.578;23.416;2023-07-20T05:59:36;15.10;;;4.40;;
33150;SDS011;19508;42.578;23.416;2023-07-20T06:02:03;10.13;;;4.00;;
33150;SDS011;19508;42.578;23.416;2023-07-20T06:04:29;16.08;;;3.65;;
33150;SDS011;19508;42.578;23.416;2023-07-20T06:06:54;11.18;;;4.20;;
33150;SDS011;19508;42.578;23.416;2023-07-20T06:09:21;12.05;;;4.10;;
33150;SDS011;19508;42.578;23.416;2023-07-20T06:11:46;12.07;;;4.13;;
33150;SDS011;19508;42.578;23.416;2023-07-20T06:14:12;14.82;;;4.05;;
33150;SDS011;19508;42.578;23.416;2023-07-20T06:16:37;16.60;;;3.75;;
33150;SDS011;19508;42.578;23.416;2023-07-20T06:19:03;14.73;;;3.95;;
33150;SDS011;19508;42.578;23.416;2023-07-20T06:21:28;10.55;;;4.18;;
33150;SDS011;19508;42.578;23.416;2023-07-20T06:23:54;19.90;;;3.40;;
33150;SDS011;19508;42.578;23.416;2023-07-20T06:26:19;10.23;;;3.58;;
33150;SDS011;19508;42.578;23.416;2023-07-20T06:28:45;10.07;;;3.65;;
33150;SDS011;19508;42.578;23.416;2023-07-20T06:31:11;11.65;;;3.70;;
33150;SDS011;19508;42.578;23.416;2023-07-20T06:33:36;11.48;;;3.65;;
33150;SDS011;19508;42.578;23.416;2023-07-20T06:36:02;9.73;;;3.88;;
33150;SDS011;19508;42.578;23.416;2023-07-20T06:38:28;14.02;;;4.03;;
33150;SDS011;19508;42.578;23.416;2023-07-20T06:40:54;14.52;;;4.40;;
33150;SDS011;19508;42.578;23.416;2023-07-20T06:43:20;28.80;;;11.75;;
33150;SDS011;19508;42.578;23.416;2023-07-20T06:45:50;29.13;;;11.43;;
33150;SDS011;19508;42.578;23.416;2023-07-20T06:48:17;37.50;;;10.77;;
33150;SDS011;19508;42.578;23.416;2023-07-20T06:50:43;17.67;;;6.70;;
33150;SDS011;19508;42.578;23.416;2023-07-20T06:53:08;26.70;;;5.80;;
33150;SDS011;19508;42.578;23.416;2023-07-20T06:55:33;17.13;;;5.63;;
33150;SDS011;19508;42.578;23.416;2023-07-20T06:57:59;17.60;;;4.45;;
33150;SDS011;19508;42.578;23.416;2023-07-20T07:00:24;10.02;;;4.22;;
33150;SDS011;19508;42.578;23.416;2023-07-20T07:02:49;12.05;;;3.38;;
33150;SDS011;19508;42.578;23.416;2023-07-20T07:05:15;13.55;;;3.97;;
33150;SDS011;19508;42.578;23.416;2023-07-20T07:07:41;11.98;;;3.38;;
33150;SDS011;19508;42.578;23.416;2023-07-20T07:10:06;12.70;;;3.80;;
33150;SDS011;19508;42.578;23.416;2023-07-20T07:12:33;13.63;;;3.83;;
33150;SDS011;19508;42.578;23.416;2023-07-20T07:14:59;16.73;;;3.80;;
33150;SDS011;19508;42.578;23.416;2023-07-20T07:17:25;13.63;;;3.85;;
33150;SDS011;19508;42.578;23.416;2023-07-20T07:19:51;18.23;;;3.97;;
33150;SDS011;19508;42.578;23.416;2023-07-20T07:22:19;13.50;;;3.15;;
33150;SDS011;19508;42.578;23.416;2023-07-20T07:24:46;15.73;;;3.67;;
33150;SDS011;19508;42.578;23.416;2023-07-20T07:27:11;22.35;;;4.38;;
33150;SDS011;19508;42.578;23.416;2023-07-20T07:29:37;16.65;;;4.43;;
33150;SDS011;19508;42.578;23.416;2023-07-20T07:32:02;13.75;;;3.90;;
33150;SDS011;19508;42.578;23.416;2023-07-20T07:34:28;16.13;;;4.57;;
33150;SDS011;19508;42.578;23.416;2023-07-20T07:36:53;14.65;;;4.05;;
33150;SDS011;19508;42.578;23.416;2023-07-20T07:39:19;22.17;;;4.28;;
33150;SDS011;19508;42.578;23.416;2023-07-20T07:41:44;15.75;;;3.88;;
33150;SDS011;19508;42.578;23.416;2023-07-20T07:44:10;24.95;;;4.38;;
33150;SDS011;19508;42.578;23.416;2023-07-20T07:46:35;13.98;;;3.92;;
33150;SDS011;19508;42.578;23.416;2023-07-20T07:49:01;15.50;;;3.90;;
33150;SDS011;19508;42.578;23.416;2023-07-20T07:51:26;17.20;;;4.28;;
33150;SDS011;19508;42.578;23.416;2023-07-20T07:53:54;19.33;;;4.72;;
33150;SDS011;19508;42.578;23.416;2023-07-20T07:56:20;29.20;;;4.55;;
33150;SDS011;19508;42.578;23.416;2023-07-20T07:58:48;21.02;;;4.93;;
33150;SDS011;19508;42.578;23.416;2023-07-20T08:01:16;18.98;;;4.50;;
33150;SDS011;19508;42.578;23.416;2023-07-20T08:03:41;20.23;;;4.65;;
33150;SDS011;19508;42.578;23.416;2023-07-20T08:06:07;22.48;;;4.10;;
33150;SDS011;19508;42.578;23.416;2023-07-20T08:08:32;12.25;;;4.25;;
33150;SDS011;19508;42.578;23.416;2023-07-20T08:10:58;17.45;;;4.47;;
33150;SDS011;19508;42.578;23.416;2023-07-20T08:13:23;18.67;;;4.13;;
33150;SDS011;19508;42.578;23.416;2023-07-20T08:15:49;21.45;;;5.45;;
33150;SDS011;19508;42.578;23.416;2023-07-20T08:18:19;20.83;;;4.35;;
33150;SDS011;19508;42.578;23.416;2023-07-20T08:20:45;22.13;;;4.60;;
33150;SDS011;19508;42.578;23.416;2023-07-20T08:23:10;29.40;;;4.80;;
33150;SDS011;19508;42.578;23.416;2023-07-20T08:25:36;16.85;;;4.68;;
33150;SDS011;19508;42.578;23.416;2023-07-20T08:28:04;18.80;;;4.78;;
33150;SDS011;19508;42.578;23.416;2023-07-20T08:30:38;21.92;;;4.70;;
33150;SDS011;19508;42.578;23.416;2023-07-20T08:33:09;18.35;;;5.25;;
33150;SDS011;19508;42.578;23.416;2023-07-20T08:35:35;18.52;;;4.45;;
33150;SDS011;19508;42.578;23.416;2023-07-20T08:38:12;31.20;;;4.72;;
33150;SDS011;19508;42.578;23.416;2023-07-20T08:40:39;21.98;;;4.55;;
33150;SDS011;19508;42.578;23.416;2023-07-20T08:43:06;26.45;;;5.82;;
33150;SDS011;19508;42.578;23.416;2023-07-20T08:45:34;23.77;;;5.15;;
33150;SDS011;19508;42.578;23.416;2023-07-20T08:48:03;18.70;;;4.38;;
33150;SDS011;19508;42.578;23.416;2023-07-20T08:50:31;25.88;;;3.88;;
33150;SDS011;19508;42.578;23.416;2023-07-20T08:52:57;34.17;;;3.53;;
33150;SDS011;19508;42.578;23.416;2023-07-20T08:55:24;17.10;;;3.40;;
33150;SDS011;19508;42.578;23.416;2023-07-20T08:57:52;5.45;;;2.42;;
33150;SDS011;19508;42.578;23.416;2023-07-20T09:00:23;22.90;;;3.10;;
33150;SDS011;19508;42.578;23.416;2023-07-20T09:02:50;14.68;;;3.03;;
33150;SDS011;19508;42.578;23.416;2023-07-20T09:05:17;19.63;;;3.05;;
33150;SDS011;19508;42.578;23.416;2023-07-20T09:07:42;10.00;;;2.72;;
33150;SDS011;19508;42.578;23.416;2023-07-20T09:10:08;15.55;;;3.00;;
33150;SDS011;19508;42.578;23.416;2023-07-20T09:12:35;13.05;;;3.67;;
33150;SDS011;19508;42.578;23.416;2023-07-20T09:15:01;19.05;;;2.95;;
33150;SDS011;19508;42.578;23.416;2023-07-20T09:17:26;14.20;;;2.95;;
33150;SDS011;19508;42.578;23.416;2023-07-20T09:19:52;15.70;;;3.13;;
33150;SDS011;19508;42.578;23.416;2023-07-20T09:22:17;12.02;;;2.97;;
33150;SDS011;19508;42.578;23.416;2023-07-20T09:24:43;17.67;;;3.03;;
33150;SDS011;19508;42.578;23.416;2023-07-20T09:27:09;21.05;;;3.30;;
33150;SDS011;19508;42.578;23.416;2023-07-20T09:29:46;14.00;;;2.85;;
33150;SDS011;19508;42.578;23.416;2023-07-20T09:32:17;18.63;;;2.72;;
33150;SDS011;19508;42.578;23.416;2023-07-20T09:34:45;17.25;;;2.83;;
33150;SDS011;19508;42.578;23.416;2023-07-20T09:37:11;16.27;;;3.20;;
33150;SDS011;19508;42.578;23.416;2023-07-20T09:39:45;16.83;;;2.60;;
33150;SDS011;19508;42.578;23.416;2023-07-20T09:42:12;13.07;;;2.97;;
33150;SDS011;19508;42.578;23.416;2023-07-20T09:44:43;14.48;;;3.35;;
33150;SDS011;19508;42.578;23.416;2023-07-20T09:47:09;15.13;;;3.10;;
33150;SDS011;19508;42.578;23.416;2023-07-20T09:49:40;16.90;;;2.55;;
33150;SDS011;19508;42.578;23.416;2023-07-20T09:52:07;11.38;;;2.70;;
33150;SDS011;19508;42.578;23.416;2023-07-20T09:54:34;12.93;;;2.38;;
33150;SDS011;19508;42.578;23.416;2023-07-20T09:57:02;17.33;;;2.58;;
33150;SDS011;19508;42.578;23.416;2023-07-20T09:59:28;14.23;;;2.72;;
33150;SDS011;19508;42.578;23.416;2023-07-20T10:01:54;18.17;;;2.75;;
33150;SDS011;19508;42.578;23.416;2023-07-20T10:04:24;18.67;;;3.05;;
33150;SDS011;19508;42.578;23.416;2023-07-20T10:06:51;8.23;;;2.63;;
33150;SDS011;19508;42.578;23.416;2023-07-20T10:09:20;13.40;;;3.33;;
33150;SDS011;19508;42.578;23.416;2023-07-20T10:11:52;15.63;;;2.80;;
33150;SDS011;19508;42.578;23.416;2023-07-20T10:14:19;15.90;;;3.08;;
33150;SDS011;19508;42.578;23.416;2023-07-20T10:16:51;10.02;;;3.08;;
33150;SDS011;19508;42.578;23.416;2023-07-20T10:19:23;12.05;;;2.15;;
33150;SDS011;19508;42.578;23.416;2023-07-20T10:22:17;12.35;;;3.25;;
33150;SDS011;19508;42.578;23.416;2023-07-20T10:24:45;11.82;;;2.60;;
33150;SDS011;19508;42.578;23.416;2023-07-20T10:27:13;17.55;;;2.80;;
33150;SDS011;19508;42.578;23.416;2023-07-20T10:29:40;10.55;;;3.05;;
33150;SDS011;19508;42.578;23.416;2023-07-20T10:32:06;11.35;;;3.22;;
33150;SDS011;19508;42.578;23.416;2023-07-20T10:34:33;16.02;;;3.05;;
33150;SDS011;19508;42.578;23.416;2023-07-20T10:36:58;14.32;;;2.90;;
33150;SDS011;19508;42.578;23.416;2023-07-20T10:39:24;13.88;;;3.13;;
33150;SDS011;19508;42.578;23.416;2023-07-20T10:42:13;9.40;;;2.67;;
33150;SDS011;19508;42.578;23.416;2023-07-20T10:44:38;8.70;;;2.63;;
33150;SDS011;19508;42.578;23.416;2023-07-20T10:47:08;10.70;;;3.08;;
33150;SDS011;19508;42.578;23.416;2023-07-20T10:49:38;18.50;;;2.78;;
33150;SDS011;19508;42.578;23.416;2023-07-20T10:52:36;10.82;;;3.00;;
33150;SDS011;19508;42.578;23.416;2023-07-20T10:55:14;12.05;;;2.58;;
33150;SDS011;19508;42.578;23.416;2023-07-20T10:57:44;13.15;;;2.58;;
33150;SDS011;19508;42.578;23.416;2023-07-20T11:00:36;13.82;;;3.40;;
33150;SDS011;19508;42.578;23.416;2023-07-20T11:03:02;20.85;;;2.63;;
33150;SDS011;19508;42.578;23.416;2023-07-20T11:05:38;9.38;;;2.63;;
33150;SDS011;19508;42.578;23.416;2023-07-20T11:08:06;17.42;;;2.80;;
33150;SDS011;19508;42.578;23.416;2023-07-20T11:10:35;15.27;;;3.30;;
33150;SDS011;19508;42.578;23.416;2023-07-20T11:13:20;13.32;;;2.83;;
33150;SDS011;19508;42.578;23.416;2023-07-20T11:18:21;8.30;;;2.53;;
33150;SDS011;19508;42.578;23.416;2023-07-20T11:20:50;29.02;;;2.55;;
33150;SDS011;19508;42.578;23.416;2023-07-20T11:23:16;13.38;;;3.25;;
33150;SDS011;19508;42.578;23.416;2023-07-20T11:25:42;13.57;;;3.22;;
33150;SDS011;19508;42.578;23.416;2023-07-20T11:28:08;19.75;;;2.75;;
33150;SDS011;19508;42.578;23.416;2023-07-20T11:30:36;12.13;;;2.65;;
33150;SDS011;19508;42.578;23.416;2023-07-20T11:33:03;17.17;;;2.92;;
33150;SDS011;19508;42.578;23.416;2023-07-20T11:35:28;9.25;;;2.50;;
33150;SDS011;19508;42.578;23.416;2023-07-20T11:37:54;15.32;;;3.25;;
33150;SDS011;19508;42.578;23.416;2023-07-20T11:40:20;13.45;;;2.78;;
33150;SDS011;19508;42.578;23.416;2023-07-20T11:42:47;13.13;;;3.20;;
33150;SDS011;19508;42.578;23.416;2023-07-20T11:45:15;14.73;;;3.35;;
33150;SDS011;19508;42.578;23.416;2023-07-20T11:47:42;11.10;;;3.08;;
33150;SDS011;19508;42.578;23.416;2023-07-20T11:50:08;10.50;;;2.83;;
33150;SDS011;19508;42.578;23.416;2023-07-20T11:52:34;12.00;;;3.15;;
33150;SDS011;19508;42.578;23.416;2023-07-20T11:55:00;21.10;;;2.95;;
33150;SDS011;19508;42.578;23.416;2023-07-20T11:57:26;13.63;;;3.10;;
33150;SDS011;19508;42.578;23.416;2023-07-20T11:59:55;12.70;;;2.70;;
33150;SDS011;19508;42.578;23.416;2023-07-20T12:02:27;13.20;;;2.28;;
33150;SDS011;19508;42.578;23.416;2023-07-20T12:04:53;12.05;;;3.17;;
33150;SDS011;19508;42.578;23.416;2023-07-20T12:07:19;14.90;;;2.80;;
33150;SDS011;19508;42.578;23.416;2023-07-20T12:09:45;13.63;;;3.33;;
33150;SDS011;19508;42.578;23.416;2023-07-20T12:12:40;15.20;;;3.00;;
33150;SDS011;19508;42.578;23.416;2023-07-20T12:15:16;23.45;;;3.42;;
33150;SDS011;19508;42.578;23.416;2023-07-20T12:17:45;14.02;;;3.33;;
33150;SDS011;19508;42.578;23.416;2023-07-20T12:20:11;13.10;;;3.60;;
33150;SDS011;19508;42.578;23.416;2023-07-20T12:22:38;18.20;;;3.78;;
33150;SDS011;19508;42.578;23.416;2023-07-20T12:25:08;14.40;;;3.55;;
33150;SDS011;19508;42.578;23.416;2023-07-20T12:27:36;13.27;;;3.72;;
33150;SDS011;19508;42.578;23.416;2023-07-20T12:30:03;12.43;;;4.05;;
33150;SDS011;19508;42.578;23.416;2023-07-20T12:32:30;10.85;;;3.25;;
33150;SDS011;19508;42.578;23.416;2023-07-20T12:34:55;9.38;;;3.40;;
33150;SDS011;19508;42.578;23.416;2023-07-20T12:37:21;10.57;;;3.20;;
33150;SDS011;19508;42.578;23.416;2023-07-20T12:39:47;9.20;;;3.50;;
33150;SDS011;19508;42.578;23.416;2023-07-20T12:42:12;15.35;;;3.67;;
33150;SDS011;19508;42.578;23.416;2023-07-20T12:44:40;10.05;;;3.67;;
33150;SDS011;19508;42.578;23.416;2023-07-20T12:47:06;11.57;;;3.05;;
33150;SDS011;19508;42.578;23.416;2023-07-20T12:49:31;17.15;;;3.13;;
33150;SDS011;19508;42.578;23.416;2023-07-20T12:51:56;15.15;;;3.15;;
33150;SDS011;19508;42.578;23.416;2023-07-20T12:54:22;22.35;;;3.22;;
33150;SDS011;19508;42.578;23.416;2023-07-20T12:56:47;12.85;;;3.15;;
33150;SDS011;19508;42.578;23.416;2023-07-20T12:59:13;13.02;;;3.10;;
33150;SDS011;19508;42.578;23.416;2023-07-20T13:01:38;17.27;;;2.90;;
33150;SDS011;19508;42.578;23.416;2023-07-20T13:04:06;9.38;;;3.00;;
33150;SDS011;19508;42.578;23.416;2023-07-20T13:06:34;13.07;;;2.75;;
33150;SDS011;19508;42.578;23.416;2023-07-20T13:09:00;14.68;;;3.47;;
33150;SDS011;19508;42.578;23.416;2023-07-20T13:11:25;14.40;;;3.72;;
33150;SDS011;19508;42.578;23.416;2023-07-20T13:13:51;12.98;;;3.28;;
33150;SDS011;19508;42.578;23.416;2023-07-20T13:16:17;13.90;;;2.95;;
33150;SDS011;19508;42.578;23.416;2023-07-20T13:18:42;8.80;;;3.22;;
33150;SDS011;19508;42.578;23.416;2023-07-20T13:21:07;11.38;;;3.63;;
33150;SDS011;19508;42.578;23.416;2023-07-20T13:23:36;7.47;;;2.45;;
33150;SDS011;19508;42.578;23.416;2023-07-20T13:26:02;10.50;;;3.05;;
33150;SDS011;19508;42.578;23.416;2023-07-20T13:28:28;10.38;;;3.55;;
33150;SDS011;19508;42.578;23.416;2023-07-20T13:30:53;16.80;;;2.67;;
33150;SDS011;19508;42.578;23.416;2023-07-20T13:33:19;7.65;;;2.40;;
33150;SDS011;19508;42.578;23.416;2023-07-20T13:35:44;10.02;;;2.88;;
33150;SDS011;19508;42.578;23.416;2023-07-20T13:38:10;9.00;;;2.38;;
33150;SDS011;19508;42.578;23.416;2023-07-20T13:40:35;11.57;;;3.05;;
33150;SDS011;19508;42.578;23.416;2023-07-20T13:43:02;12.75;;;2.95;;
33150;SDS011;19508;42.578;23.416;2023-07-20T13:45:27;13.10;;;3.47;;
33150;SDS011;19508;42.578;23.416;2023-07-20T13:47:52;20.13;;;3.50;;
33150;SDS011;19508;42.578;23.416;2023-07-20T13:50:18;9.98;;;2.78;;
33150;SDS011;19508;42.578;23.416;2023-07-20T13:52:43;13.43;;;3.15;;
33150;SDS011;19508;42.578;23.416;2023-07-20T13:55:08;11.63;;;3.22;;
33150;SDS011;19508;42.578;23.416;2023-07-20T13:57:34;9.82;;;2.65;;
33150;SDS011;19508;42.578;23.416;2023-07-20T13:59:59;16.77;;;3.45;;
33150;SDS011;19508;42.578;23.416;2023-07-20T14:02:26;11.75;;;3.00;;
33150;SDS011;19508;42.578;23.416;2023-07-20T14:04:51;10.75;;;3.70;;
33150;SDS011;19508;42.578;23.416;2023-07-20T14:07:20;13.60;;;3.53;;
33150;SDS011;19508;42.578;23.416;2023-07-20T14:09:46;17.40;;;3.15;;
33150;SDS011;19508;42.578;23.416;2023-07-20T14:12:12;20.65;;;3.13;;
33150;SDS011;19508;42.578;23.416;2023-07-20T14:14:39;13.73;;;2.78;;
33150;SDS011;19508;42.578;23.416;2023-07-20T14:17:07;18.13;;;2.85;;
33150;SDS011;19508;42.578;23.416;2023-07-20T14:19:32;6.63;;;2.33;;
33150;SDS011;19508;42.578;23.416;2023-07-20T14:21:58;16.63;;;2.35;;
33150;SDS011;19508;42.578;23.416;2023-07-20T14:24:24;23.15;;;3.33;;
33150;SDS011;19508;42.578;23.416;2023-07-20T14:26:51;11.45;;;2.67;;
33150;SDS011;19508;42.578;23.416;2023-07-20T14:29:16;12.60;;;2.80;;
33150;SDS011;19508;42.578;23.416;2023-07-20T14:31:43;17.05;;;3.05;;
33150;SDS011;19508;42.578;23.416;2023-07-20T14:34:09;12.40;;;2.67;;
33150;SDS011;19508;42.578;23.416;2023-07-20T14:36:34;14.98;;;2.70;;
33150;SDS011;19508;42.578;23.416;2023-07-20T14:39:00;16.63;;;3.25;;